sensor_id;sensor_type;location;lat;lon;timestamp;P1;durP1;ratioP1;P2;durP2;ratioP2
8058;SDS011;4072;42.668;23.396;2022-07-29T00:08:25;9.33;;;8.37;;
8058;SDS011;4072;42.668;23.396;2022-07-29T00:10:53;8.97;;;8.07;;
8058;SDS011;4072;42.668;23.396;2022-07-29T00:13:21;9.80;;;8.80;;
8058;SDS011;4072;42.668;23.396;2022-07-29T00:16:07;9.57;;;8.67;;
8058;SDS011;4072;42.668;23.396;2022-07-29T00:21:57;9.27;;;8.27;;
8058;SDS011;4072;42.668;23.396;2022-07-29T00:24:27;9.87;;;8.97;;
8058;SDS011;4072;42.668;23.396;2022-07-29T00:26:55;9.03;;;8.23;;
8058;SDS011;4072;42.668;23.396;2022-07-29T01:07:41;14.33;;;12.80;;
8058;SDS011;4072;42.668;23.396;2022-07-29T01:10:09;13.63;;;12.33;;
8058;SDS011;4072;42.668;23.396;2022-07-29T01:12:37;13.43;;;12.03;;
8058;SDS011;4072;42.668;23.396;2022-07-29T01:15:07;13.10;;;11.73;;
8058;SDS011;4072;42.668;23.396;2022-07-29T01:17:41;12.77;;;9.77;;
8058;SDS011;4072;42.668;23.396;2022-07-29T01:20:25;10.17;;;9.20;;
8058;SDS011;4072;42.668;23.396;2022-07-29T01:23:13;13.03;;;11.83;;
8058;SDS011;4072;42.668;23.396;2022-07-29T01:26:04;13.50;;;12.20;;
8058;SDS011;4072;42.668;23.396;2022-07-29T01:31:22;14.43;;;12.97;;
8058;SDS011;4072;42.668;23.396;2022-07-29T01:33:57;13.77;;;12.37;;
8058;SDS011;4072;42.668;23.396;2022-07-29T01:36:27;13.17;;;11.97;;
8058;SDS011;4072;42.668;23.396;2022-07-29T01:38:57;15.63;;;12.50;;
8058;SDS011;4072;42.668;23.396;2022-07-29T01:41:26;14.07;;;12.23;;
8058;SDS011;4072;42.668;23.396;2022-07-29T01:44:02;13.70;;;12.20;;
8058;SDS011;4072;42.668;23.396;2022-07-29T01:46:36;12.97;;;11.67;;
8058;SDS011;4072;42.668;23.396;2022-07-29T01:49:07;14.67;;;12.83;;
8058;SDS011;4072;42.668;23.396;2022-07-29T01:51:41;14.40;;;12.97;;
8058;SDS011;4072;42.668;23.396;2022-07-29T01:54:12;14.47;;;13.17;;
8058;SDS011;4072;42.668;23.396;2022-07-29T01:56:42;13.87;;;12.47;;
8058;SDS011;4072;42.668;23.396;2022-07-29T01:59:11;12.50;;;11.27;;
8058;SDS011;4072;42.668;23.396;2022-07-29T02:01:40;12.07;;;10.83;;
8058;SDS011;4072;42.668;23.396;2022-07-29T02:04:11;11.17;;;10.13;;
8058;SDS011;4072;42.668;23.396;2022-07-29T02:06:57;11.80;;;9.63;;
8058;SDS011;4072;42.668;23.396;2022-07-29T02:09:26;10.67;;;9.57;;
8058;SDS011;4072;42.668;23.396;2022-07-29T02:11:54;9.87;;;8.87;;
8058;SDS011;4072;42.668;23.396;2022-07-29T02:14:23;9.63;;;8.70;;
8058;SDS011;4072;42.668;23.396;2022-07-29T02:16:54;9.17;;;8.23;;
8058;SDS011;4072;42.668;23.396;2022-07-29T02:19:24;10.20;;;8.40;;
8058;SDS011;4072;42.668;23.396;2022-07-29T02:21:55;8.33;;;7.53;;
8058;SDS011;4072;42.668;23.396;2022-07-29T02:24:24;9.23;;;8.37;;
8058;SDS011;4072;42.668;23.396;2022-07-29T02:26:53;8.60;;;7.70;;
8058;SDS011;4072;42.668;23.396;2022-07-29T02:29:22;9.43;;;8.53;;
8058;SDS011;4072;42.668;23.396;2022-07-29T02:31:52;10.97;;;9.00;;
8058;SDS011;4072;42.668;23.396;2022-07-29T02:34:21;9.77;;;8.77;;
8058;SDS011;4072;42.668;23.396;2022-07-29T02:36:49;9.07;;;8.03;;
8058;SDS011;4072;42.668;23.396;2022-07-29T02:39:18;15.03;;;8.70;;
8058;SDS011;4072;42.668;23.396;2022-07-29T02:41:47;9.40;;;8.60;;
8058;SDS011;4072;42.668;23.396;2022-07-29T02:44:16;11.53;;;9.50;;
8058;SDS011;4072;42.668;23.396;2022-07-29T02:46:46;9.73;;;8.73;;
8058;SDS011;4072;42.668;23.396;2022-07-29T02:49:18;10.47;;;9.47;;
8058;SDS011;4072;42.668;23.396;2022-07-29T02:51:53;10.20;;;9.10;;
8058;SDS011;4072;42.668;23.396;2022-07-29T02:54:23;11.13;;;10.13;;
8058;SDS011;4072;42.668;23.396;2022-07-29T02:56:53;12.10;;;10.97;;
8058;SDS011;4072;42.668;23.396;2022-07-29T02:59:23;13.47;;;11.23;;
8058;SDS011;4072;42.668;23.396;2022-07-29T03:01:54;18.03;;;14.37;;
8058;SDS011;4072;42.668;23.396;2022-07-29T03:04:25;18.27;;;11.90;;
8058;SDS011;4072;42.668;23.396;2022-07-29T03:06:55;13.83;;;12.53;;
8058;SDS011;4072;42.668;23.396;2022-07-29T03:09:26;15.80;;;13.33;;
8058;SDS011;4072;42.668;23.396;2022-07-29T03:11:55;15.50;;;13.90;;
8058;SDS011;4072;42.668;23.396;2022-07-29T03:14:24;16.00;;;14.50;;
8058;SDS011;4072;42.668;23.396;2022-07-29T03:16:53;16.17;;;14.23;;
8058;SDS011;4072;42.668;23.396;2022-07-29T03:19:21;16.07;;;14.50;;
8058;SDS011;4072;42.668;23.396;2022-07-29T03:21:50;17.97;;;15.17;;
8058;SDS011;4072;42.668;23.396;2022-07-29T03:24:25;16.67;;;15.03;;
8058;SDS011;4072;42.668;23.396;2022-07-29T03:26:54;16.57;;;14.50;;
8058;SDS011;4072;42.668;23.396;2022-07-29T03:29:23;15.80;;;14.30;;
8058;SDS011;4072;42.668;23.396;2022-07-29T03:31:59;15.67;;;14.07;;
8058;SDS011;4072;42.668;23.396;2022-07-29T03:34:29;16.23;;;14.73;;
8058;SDS011;4072;42.668;23.396;2022-07-29T03:36:59;15.93;;;14.17;;
8058;SDS011;4072;42.668;23.396;2022-07-29T03:39:29;16.00;;;14.57;;
8058;SDS011;4072;42.668;23.396;2022-07-29T03:41:57;17.13;;;14.57;;
8058;SDS011;4072;42.668;23.396;2022-07-29T03:44:26;15.73;;;14.10;;
8058;SDS011;4072;42.668;23.396;2022-07-29T03:46:55;16.57;;;14.97;;
8058;SDS011;4072;42.668;23.396;2022-07-29T03:49:26;21.43;;;19.13;;
8058;SDS011;4072;42.668;23.396;2022-07-29T03:51:54;23.33;;;20.87;;
8058;SDS011;4072;42.668;23.396;2022-07-29T03:54:24;24.67;;;21.37;;
8058;SDS011;4072;42.668;23.396;2022-07-29T03:56:51;23.70;;;21.00;;
8058;SDS011;4072;42.668;23.396;2022-07-29T03:59:20;24.27;;;21.07;;
8058;SDS011;4072;42.668;23.396;2022-07-29T04:01:49;18.17;;;16.33;;
8058;SDS011;4072;42.668;23.396;2022-07-29T04:04:17;14.80;;;12.47;;
8058;SDS011;4072;42.668;23.396;2022-07-29T04:06:47;14.57;;;10.57;;
8058;SDS011;4072;42.668;23.396;2022-07-29T04:09:15;11.73;;;10.73;;
8058;SDS011;4072;42.668;23.396;2022-07-29T04:11:44;11.47;;;10.27;;
8058;SDS011;4072;42.668;23.396;2022-07-29T04:14:29;11.70;;;10.47;;
8058;SDS011;4072;42.668;23.396;2022-07-29T04:16:57;11.70;;;10.47;;
8058;SDS011;4072;42.668;23.396;2022-07-29T04:19:24;12.17;;;10.70;;
8058;SDS011;4072;42.668;23.396;2022-07-29T04:21:53;11.83;;;10.50;;
8058;SDS011;4072;42.668;23.396;2022-07-29T04:24:21;13.20;;;11.73;;
8058;SDS011;4072;42.668;23.396;2022-07-29T04:26:51;14.00;;;12.57;;
8058;SDS011;4072;42.668;23.396;2022-07-29T04:29:18;15.87;;;12.93;;
8058;SDS011;4072;42.668;23.396;2022-07-29T04:31:47;13.93;;;12.53;;
8058;SDS011;4072;42.668;23.396;2022-07-29T04:34:15;14.60;;;12.67;;
8058;SDS011;4072;42.668;23.396;2022-07-29T04:36:44;13.60;;;12.30;;
8058;SDS011;4072;42.668;23.396;2022-07-29T04:39:13;16.40;;;13.73;;
8058;SDS011;4072;42.668;23.396;2022-07-29T04:41:47;16.10;;;13.13;;
8058;SDS011;4072;42.668;23.396;2022-07-29T04:44:19;14.53;;;12.93;;
8058;SDS011;4072;42.668;23.396;2022-07-29T04:46:53;17.07;;;14.23;;
8058;SDS011;4072;42.668;23.396;2022-07-29T04:49:23;13.83;;;12.37;;
8058;SDS011;4072;42.668;23.396;2022-07-29T04:51:51;22.57;;;12.70;;
8058;SDS011;4072;42.668;23.396;2022-07-29T04:54:19;23.00;;;13.93;;
8058;SDS011;4072;42.668;23.396;2022-07-29T04:56:47;16.57;;;12.33;;
8058;SDS011;4072;42.668;23.396;2022-07-29T04:59:15;14.50;;;12.30;;
8058;SDS011;4072;42.668;23.396;2022-07-29T05:01:44;12.90;;;10.47;;
8058;SDS011;4072;42.668;23.396;2022-07-29T05:04:13;12.67;;;10.87;;
8058;SDS011;4072;42.668;23.396;2022-07-29T05:06:41;10.93;;;9.67;;
8058;SDS011;4072;42.668;23.396;2022-07-29T05:09:09;14.87;;;10.97;;
8058;SDS011;4072;42.668;23.396;2022-07-29T05:11:37;11.33;;;10.13;;
8058;SDS011;4072;42.668;23.396;2022-07-29T05:14:05;12.77;;;10.30;;
8058;SDS011;4072;42.668;23.396;2022-07-29T05:16:34;9.90;;;8.87;;
8058;SDS011;4072;42.668;23.396;2022-07-29T05:19:03;10.47;;;9.40;;
8058;SDS011;4072;42.668;23.396;2022-07-29T05:21:39;9.20;;;8.27;;
8058;SDS011;4072;42.668;23.396;2022-07-29T05:24:07;10.90;;;8.32;;
8058;SDS011;4072;42.668;23.396;2022-07-29T05:26:35;13.97;;;8.67;;
8058;SDS011;4072;42.668;23.396;2022-07-29T05:29:03;8.32;;;7.53;;
8058;SDS011;4072;42.668;23.396;2022-07-29T05:31:31;11.20;;;8.00;;
8058;SDS011;4072;42.668;23.396;2022-07-29T05:34:00;8.80;;;7.85;;
8058;SDS011;4072;42.668;23.396;2022-07-29T05:36:29;8.10;;;7.33;;
8058;SDS011;4072;42.668;23.396;2022-07-29T05:38:57;8.23;;;7.13;;
8058;SDS011;4072;42.668;23.396;2022-07-29T05:41:25;8.77;;;7.25;;
8058;SDS011;4072;42.668;23.396;2022-07-29T05:43:53;7.78;;;6.43;;
8058;SDS011;4072;42.668;23.396;2022-07-29T05:46:21;9.43;;;6.10;;
8058;SDS011;4072;42.668;23.396;2022-07-29T05:48:49;8.60;;;6.80;;
8058;SDS011;4072;42.668;23.396;2022-07-29T05:51:17;8.43;;;5.93;;
8058;SDS011;4072;42.668;23.396;2022-07-29T05:53:48;6.20;;;5.70;;
8058;SDS011;4072;42.668;23.396;2022-07-29T05:56:16;9.40;;;6.68;;
8058;SDS011;4072;42.668;23.396;2022-07-29T05:58:44;6.88;;;6.28;;
8058;SDS011;4072;42.668;23.396;2022-07-29T06:01:12;5.88;;;5.38;;
8058;SDS011;4072;42.668;23.396;2022-07-29T06:03:41;7.18;;;5.93;;
8058;SDS011;4072;42.668;23.396;2022-07-29T06:06:09;8.23;;;6.93;;
8058;SDS011;4072;42.668;23.396;2022-07-29T06:08:37;10.63;;;6.00;;
8058;SDS011;4072;42.668;23.396;2022-07-29T06:11:08;8.00;;;6.35;;
8058;SDS011;4072;42.668;23.396;2022-07-29T06:13:36;7.85;;;6.10;;
8058;SDS011;4072;42.668;23.396;2022-07-29T06:16:04;6.70;;;6.07;;
8058;SDS011;4072;42.668;23.396;2022-07-29T06:18:32;7.32;;;6.72;;
8058;SDS011;4072;42.668;23.396;2022-07-29T06:21:01;8.13;;;7.32;;
8058;SDS011;4072;42.668;23.396;2022-07-29T06:23:35;7.35;;;6.63;;
8058;SDS011;4072;42.668;23.396;2022-07-29T06:26:03;9.65;;;6.25;;
8058;SDS011;4072;42.668;23.396;2022-07-29T06:28:32;6.85;;;6.22;;
8058;SDS011;4072;42.668;23.396;2022-07-29T06:31:01;7.50;;;6.90;;
8058;SDS011;4072;42.668;23.396;2022-07-29T06:33:29;7.50;;;6.32;;
8058;SDS011;4072;42.668;23.396;2022-07-29T06:35:57;6.57;;;6.07;;
8058;SDS011;4072;42.668;23.396;2022-07-29T06:38:26;6.15;;;5.65;;
8058;SDS011;4072;42.668;23.396;2022-07-29T06:41:00;6.85;;;6.25;;
8058;SDS011;4072;42.668;23.396;2022-07-29T06:43:29;6.75;;;5.70;;
8058;SDS011;4072;42.668;23.396;2022-07-29T06:46:00;6.25;;;5.63;;
8058;SDS011;4072;42.668;23.396;2022-07-29T06:48:28;8.20;;;6.90;;
8058;SDS011;4072;42.668;23.396;2022-07-29T06:50:57;8.48;;;5.40;;
8058;SDS011;4072;42.668;23.396;2022-07-29T06:53:26;6.35;;;4.85;;
8058;SDS011;4072;42.668;23.396;2022-07-29T06:55:54;5.78;;;4.97;;
8058;SDS011;4072;42.668;23.396;2022-07-29T06:58:22;4.95;;;4.55;;
8058;SDS011;4072;42.668;23.396;2022-07-29T07:00:50;6.28;;;5.68;;
8058;SDS011;4072;42.668;23.396;2022-07-29T07:03:20;4.90;;;4.50;;
8058;SDS011;4072;42.668;23.396;2022-07-29T07:05:51;3.97;;;3.67;;
8058;SDS011;4072;42.668;23.396;2022-07-29T07:08:20;7.30;;;4.70;;
8058;SDS011;4072;42.668;23.396;2022-07-29T07:10:49;11.27;;;7.25;;
8058;SDS011;4072;42.668;23.396;2022-07-29T07:13:17;5.05;;;3.88;;
8058;SDS011;4072;42.668;23.396;2022-07-29T07:15:45;4.97;;;3.90;;
8058;SDS011;4072;42.668;23.396;2022-07-29T07:18:14;5.70;;;5.10;;
8058;SDS011;4072;42.668;23.396;2022-07-29T07:20:44;4.43;;;4.05;;
8058;SDS011;4072;42.668;23.396;2022-07-29T07:23:14;4.45;;;4.05;;
8058;SDS011;4072;42.668;23.396;2022-07-29T07:25:42;5.53;;;4.50;;
8058;SDS011;4072;42.668;23.396;2022-07-29T07:28:10;16.75;;;14.15;;
8058;SDS011;4072;42.668;23.396;2022-07-29T07:30:38;8.75;;;6.30;;
8058;SDS011;4072;42.668;23.396;2022-07-29T07:33:06;5.85;;;4.30;;
8058;SDS011;4072;42.668;23.396;2022-07-29T07:35:35;5.70;;;4.70;;
8058;SDS011;4072;42.668;23.396;2022-07-29T07:38:05;5.07;;;4.13;;
8058;SDS011;4072;42.668;23.396;2022-07-29T07:40:33;4.57;;;4.20;;
8058;SDS011;4072;42.668;23.396;2022-07-29T07:43:01;10.10;;;4.47;;
8058;SDS011;4072;42.668;23.396;2022-07-29T07:45:29;4.82;;;4.43;;
8058;SDS011;4072;42.668;23.396;2022-07-29T07:47:58;7.03;;;4.03;;
8058;SDS011;4072;42.668;23.396;2022-07-29T07:50:26;5.45;;;4.40;;
8058;SDS011;4072;42.668;23.396;2022-07-29T07:52:54;3.85;;;3.55;;
8058;SDS011;4072;42.668;23.396;2022-07-29T07:55:26;5.03;;;3.65;;
8058;SDS011;4072;42.668;23.396;2022-07-29T07:58:14;3.60;;;3.40;;
8058;SDS011;4072;42.668;23.396;2022-07-29T08:00:42;3.72;;;3.38;;
8058;SDS011;4072;42.668;23.396;2022-07-29T08:03:10;4.30;;;3.85;;
8058;SDS011;4072;42.668;23.396;2022-07-29T08:05:42;4.00;;;3.58;;
8058;SDS011;4072;42.668;23.396;2022-07-29T08:08:11;5.80;;;3.80;;
8058;SDS011;4072;42.668;23.396;2022-07-29T08:10:40;6.75;;;4.55;;
8058;SDS011;4072;42.668;23.396;2022-07-29T08:13:22;5.10;;;4.70;;
8058;SDS011;4072;42.668;23.396;2022-07-29T08:15:51;5.30;;;3.40;;
8058;SDS011;4072;42.668;23.396;2022-07-29T08:18:25;3.65;;;3.30;;
8058;SDS011;4072;42.668;23.396;2022-07-29T08:20:53;3.75;;;3.45;;
8058;SDS011;4072;42.668;23.396;2022-07-29T08:23:22;4.30;;;4.00;;
8058;SDS011;4072;42.668;23.396;2022-07-29T08:25:52;5.40;;;3.88;;
8058;SDS011;4072;42.668;23.396;2022-07-29T08:28:20;4.03;;;3.72;;
8058;SDS011;4072;42.668;23.396;2022-07-29T08:30:51;4.75;;;4.07;;
8058;SDS011;4072;42.668;23.396;2022-07-29T08:33:19;3.35;;;3.05;;
8058;SDS011;4072;42.668;23.396;2022-07-29T08:35:47;3.83;;;3.05;;
8058;SDS011;4072;42.668;23.396;2022-07-29T08:38:16;3.47;;;3.20;;
8058;SDS011;4072;42.668;23.396;2022-07-29T08:40:44;3.30;;;3.00;;
8058;SDS011;4072;42.668;23.396;2022-07-29T08:43:14;3.20;;;3.00;;
8058;SDS011;4072;42.668;23.396;2022-07-29T08:45:43;4.40;;;3.33;;
8058;SDS011;4072;42.668;23.396;2022-07-29T08:48:13;3.35;;;2.80;;
8058;SDS011;4072;42.668;23.396;2022-07-29T08:50:43;3.65;;;3.30;;
8058;SDS011;4072;42.668;23.396;2022-07-29T08:53:13;3.03;;;2.70;;
8058;SDS011;4072;42.668;23.396;2022-07-29T08:55:41;6.43;;;3.22;;
8058;SDS011;4072;42.668;23.396;2022-07-29T08:58:10;3.70;;;2.95;;
8058;SDS011;4072;42.668;23.396;2022-07-29T09:00:43;3.25;;;2.95;;
8058;SDS011;4072;42.668;23.396;2022-07-29T09:03:12;8.50;;;3.15;;
8058;SDS011;4072;42.668;23.396;2022-07-29T09:05:41;3.50;;;3.20;;
8058;SDS011;4072;42.668;23.396;2022-07-29T09:08:13;3.50;;;3.20;;
8058;SDS011;4072;42.668;23.396;2022-07-29T09:10:42;3.70;;;3.40;;
8058;SDS011;4072;42.668;23.396;2022-07-29T09:13:10;3.33;;;3.13;;
8058;SDS011;4072;42.668;23.396;2022-07-29T09:15:37;2.88;;;2.65;;
8058;SDS011;4072;42.668;23.396;2022-07-29T09:18:07;4.40;;;4.00;;
8058;SDS011;4072;42.668;23.396;2022-07-29T09:20:55;3.78;;;3.42;;
8058;SDS011;4072;42.668;23.396;2022-07-29T09:23:41;3.67;;;3.40;;
8058;SDS011;4072;42.668;23.396;2022-07-29T09:26:09;4.00;;;3.42;;
8058;SDS011;4072;42.668;23.396;2022-07-29T09:28:39;3.65;;;3.35;;
8058;SDS011;4072;42.668;23.396;2022-07-29T09:31:10;3.38;;;3.08;;
8058;SDS011;4072;42.668;23.396;2022-07-29T09:33:39;5.05;;;3.53;;
8058;SDS011;4072;42.668;23.396;2022-07-29T09:36:09;4.15;;;3.30;;
8058;SDS011;4072;42.668;23.396;2022-07-29T09:38:37;4.95;;;3.47;;
8058;SDS011;4072;42.668;23.396;2022-07-29T09:41:05;5.65;;;4.30;;
8058;SDS011;4072;42.668;23.396;2022-07-29T09:43:34;5.82;;;3.03;;
8058;SDS011;4072;42.668;23.396;2022-07-29T09:46:09;3.78;;;3.42;;
8058;SDS011;4072;42.668;23.396;2022-07-29T09:48:39;3.28;;;3.08;;
8058;SDS011;4072;42.668;23.396;2022-07-29T09:51:16;3.53;;;3.22;;
8058;SDS011;4072;42.668;23.396;2022-07-29T09:53:48;3.65;;;3.13;;
8058;SDS011;4072;42.668;23.396;2022-07-29T09:56:19;2.70;;;2.50;;
8058;SDS011;4072;42.668;23.396;2022-07-29T09:58:47;3.17;;;2.95;;
8058;SDS011;4072;42.668;23.396;2022-07-29T10:01:15;2.95;;;2.75;;
8058;SDS011;4072;42.668;23.396;2022-07-29T10:04:03;2.33;;;2.22;;
8058;SDS011;4072;42.668;23.396;2022-07-29T10:06:31;3.72;;;3.42;;
8058;SDS011;4072;42.668;23.396;2022-07-29T10:09:08;3.45;;;3.15;;
8058;SDS011;4072;42.668;23.396;2022-07-29T10:11:36;3.65;;;3.08;;
8058;SDS011;4072;42.668;23.396;2022-07-29T10:14:15;3.53;;;3.22;;
8058;SDS011;4072;42.668;23.396;2022-07-29T10:16:43;3.63;;;3.00;;
8058;SDS011;4072;42.668;23.396;2022-07-29T10:19:13;4.43;;;3.78;;
8058;SDS011;4072;42.668;23.396;2022-07-29T10:21:41;3.47;;;3.00;;
8058;SDS011;4072;42.668;23.396;2022-07-29T10:24:11;3.38;;;3.08;;
8058;SDS011;4072;42.668;23.396;2022-07-29T10:26:40;3.67;;;3.00;;
8058;SDS011;4072;42.668;23.396;2022-07-29T10:29:08;3.50;;;2.65;;
8058;SDS011;4072;42.668;23.396;2022-07-29T10:31:39;5.32;;;4.00;;
8058;SDS011;4072;42.668;23.396;2022-07-29T10:34:11;3.67;;;3.28;;
8058;SDS011;4072;42.668;23.396;2022-07-29T10:36:47;5.85;;;4.88;;
8058;SDS011;4072;42.668;23.396;2022-07-29T10:39:20;3.50;;;3.20;;
8058;SDS011;4072;42.668;23.396;2022-07-29T10:41:54;3.95;;;3.15;;
8058;SDS011;4072;42.668;23.396;2022-07-29T10:44:25;4.53;;;3.10;;
8058;SDS011;4072;42.668;23.396;2022-07-29T10:46:53;3.42;;;3.13;;
8058;SDS011;4072;42.668;23.396;2022-07-29T10:49:23;3.63;;;3.33;;
8058;SDS011;4072;42.668;23.396;2022-07-29T10:52:10;3.40;;;3.10;;
8058;SDS011;4072;42.668;23.396;2022-07-29T10:54:47;5.28;;;3.30;;
8058;SDS011;4072;42.668;23.396;2022-07-29T10:57:17;2.88;;;2.65;;
8058;SDS011;4072;42.668;23.396;2022-07-29T11:00:26;4.97;;;3.40;;
8058;SDS011;4072;42.668;23.396;2022-07-29T11:02:55;3.97;;;3.67;;
8058;SDS011;4072;42.668;23.396;2022-07-29T11:05:24;3.47;;;3.00;;
8058;SDS011;4072;42.668;23.396;2022-07-29T11:08:19;4.45;;;4.05;;
8058;SDS011;4072;42.668;23.396;2022-07-29T11:10:53;3.90;;;3.50;;
8058;SDS011;4072;42.668;23.396;2022-07-29T11:13:46;5.72;;;4.38;;
8058;SDS011;4072;42.668;23.396;2022-07-29T11:16:18;4.03;;;3.72;;
8058;SDS011;4072;42.668;23.396;2022-07-29T11:21:39;4.57;;;4.18;;
8058;SDS011;4072;42.668;23.396;2022-07-29T11:24:22;7.20;;;4.78;;
8058;SDS011;4072;42.668;23.396;2022-07-29T11:27:14;6.53;;;5.32;;
8058;SDS011;4072;42.668;23.396;2022-07-29T11:29:49;3.80;;;3.50;;
8058;SDS011;4072;42.668;23.396;2022-07-29T11:32:21;4.07;;;3.60;;
8058;SDS011;4072;42.668;23.396;2022-07-29T11:35:10;3.60;;;3.38;;
8058;SDS011;4072;42.668;23.396;2022-07-29T11:37:43;5.05;;;4.18;;
8058;SDS011;4072;42.668;23.396;2022-07-29T11:40:22;3.83;;;3.60;;
8058;SDS011;4072;42.668;23.396;2022-07-29T11:42:50;4.20;;;3.80;;
8058;SDS011;4072;42.668;23.396;2022-07-29T11:45:27;6.05;;;3.90;;
8058;SDS011;4072;42.668;23.396;2022-07-29T11:48:16;5.82;;;4.07;;
8058;SDS011;4072;42.668;23.396;2022-07-29T11:50:56;4.43;;;4.03;;
8058;SDS011;4072;42.668;23.396;2022-07-29T11:53:24;4.30;;;3.63;;
8058;SDS011;4072;42.668;23.396;2022-07-29T11:56:13;4.43;;;4.10;;
8058;SDS011;4072;42.668;23.396;2022-07-29T11:58:47;3.88;;;3.58;;
8058;SDS011;4072;42.668;23.396;2022-07-29T12:01:20;4.82;;;4.20;;
8058;SDS011;4072;42.668;23.396;2022-07-29T12:04:01;4.65;;;4.25;;
8058;SDS011;4072;42.668;23.396;2022-07-29T12:06:32;4.55;;;3.88;;
8058;SDS011;4072;42.668;23.396;2022-07-29T12:09:00;4.35;;;3.95;;
8058;SDS011;4072;42.668;23.396;2022-07-29T12:11:41;4.40;;;4.00;;
8058;SDS011;4072;42.668;23.396;2022-07-29T12:14:24;4.40;;;4.10;;
8058;SDS011;4072;42.668;23.396;2022-07-29T12:16:52;5.03;;;4.55;;
8058;SDS011;4072;42.668;23.396;2022-07-29T12:19:20;4.95;;;4.55;;
8058;SDS011;4072;42.668;23.396;2022-07-29T12:21:51;4.68;;;4.28;;
8058;SDS011;4072;42.668;23.396;2022-07-29T12:24:24;4.55;;;4.25;;
8058;SDS011;4072;42.668;23.396;2022-07-29T12:26:58;5.05;;;4.68;;
8058;SDS011;4072;42.668;23.396;2022-07-29T12:29:27;4.35;;;3.97;;
8058;SDS011;4072;42.668;23.396;2022-07-29T12:32:00;5.13;;;4.72;;
8058;SDS011;4072;42.668;23.396;2022-07-29T12:34:29;5.32;;;4.57;;
8058;SDS011;4072;42.668;23.396;2022-07-29T12:36:58;5.28;;;4.88;;
8058;SDS011;4072;42.668;23.396;2022-07-29T12:39:27;5.03;;;4.63;;
8058;SDS011;4072;42.668;23.396;2022-07-29T12:41:57;6.03;;;5.53;;
8058;SDS011;4072;42.668;23.396;2022-07-29T12:44:42;6.10;;;5.50;;
8058;SDS011;4072;42.668;23.396;2022-07-29T12:47:11;5.28;;;4.78;;
8058;SDS011;4072;42.668;23.396;2022-07-29T12:49:39;6.13;;;5.45;;
8058;SDS011;4072;42.668;23.396;2022-07-29T12:52:26;5.15;;;4.75;;
8058;SDS011;4072;42.668;23.396;2022-07-29T12:54:55;5.65;;;5.25;;
8058;SDS011;4072;42.668;23.396;2022-07-29T12:57:24;5.90;;;5.50;;
8058;SDS011;4072;42.668;23.396;2022-07-29T13:00:03;5.15;;;4.63;;
8058;SDS011;4072;42.668;23.396;2022-07-29T13:02:31;4.90;;;4.43;;
8058;SDS011;4072;42.668;23.396;2022-07-29T13:05:03;5.45;;;4.95;;
8058;SDS011;4072;42.668;23.396;2022-07-29T13:07:32;6.35;;;5.28;;
8058;SDS011;4072;42.668;23.396;2022-07-29T13:10:21;6.10;;;5.57;;
8058;SDS011;4072;42.668;23.396;2022-07-29T13:13:04;5.20;;;4.80;;
8058;SDS011;4072;42.668;23.396;2022-07-29T13:15:34;5.55;;;5.05;;
8058;SDS011;4072;42.668;23.396;2022-07-29T13:18:03;5.45;;;5.05;;
8058;SDS011;4072;42.668;23.396;2022-07-29T13:20:31;5.30;;;4.90;;
8058;SDS011;4072;42.668;23.396;2022-07-29T13:23:00;4.70;;;4.38;;
8058;SDS011;4072;42.668;23.396;2022-07-29T13:25:29;5.47;;;4.60;;
8058;SDS011;4072;42.668;23.396;2022-07-29T13:27:58;5.13;;;4.40;;
8058;SDS011;4072;42.668;23.396;2022-07-29T13:30:27;4.68;;;4.38;;
8058;SDS011;4072;42.668;23.396;2022-07-29T13:32:55;4.35;;;4.05;;
8058;SDS011;4072;42.668;23.396;2022-07-29T13:35:23;4.53;;;4.22;;
8058;SDS011;4072;42.668;23.396;2022-07-29T13:37:51;5.15;;;4.75;;
8058;SDS011;4072;42.668;23.396;2022-07-29T13:40:19;5.18;;;4.63;;
8058;SDS011;4072;42.668;23.396;2022-07-29T13:42:47;4.80;;;4.30;;
8058;SDS011;4072;42.668;23.396;2022-07-29T13:45:16;4.80;;;4.40;;
8058;SDS011;4072;42.668;23.396;2022-07-29T13:47:46;4.70;;;4.40;;
8058;SDS011;4072;42.668;23.396;2022-07-29T13:50:14;5.25;;;4.85;;
8058;SDS011;4072;42.668;23.396;2022-07-29T13:52:42;5.30;;;4.80;;
8058;SDS011;4072;42.668;23.396;2022-07-29T13:55:10;5.13;;;4.68;;
8058;SDS011;4072;42.668;23.396;2022-07-29T13:57:39;5.28;;;4.57;;
8058;SDS011;4072;42.668;23.396;2022-07-29T14:00:07;6.10;;;4.93;;
8058;SDS011;4072;42.668;23.396;2022-07-29T14:02:36;5.50;;;5.10;;
8058;SDS011;4072;42.668;23.396;2022-07-29T14:05:06;8.43;;;5.13;;
8058;SDS011;4072;42.668;23.396;2022-07-29T14:07:36;5.20;;;4.80;;
8058;SDS011;4072;42.668;23.396;2022-07-29T14:10:05;6.72;;;4.30;;
8058;SDS011;4072;42.668;23.396;2022-07-29T14:12:33;5.15;;;4.70;;
8058;SDS011;4072;42.668;23.396;2022-07-29T14:15:01;4.43;;;4.03;;
8058;SDS011;4072;42.668;23.396;2022-07-29T14:17:30;5.38;;;4.97;;
8058;SDS011;4072;42.668;23.396;2022-07-29T14:20:01;5.55;;;5.05;;
8058;SDS011;4072;42.668;23.396;2022-07-29T14:22:30;5.35;;;4.90;;
8058;SDS011;4072;42.668;23.396;2022-07-29T14:25:07;5.70;;;5.13;;
8058;SDS011;4072;42.668;23.396;2022-07-29T14:27:40;5.20;;;4.80;;
8058;SDS011;4072;42.668;23.396;2022-07-29T14:30:09;5.10;;;4.65;;
8058;SDS011;4072;42.668;23.396;2022-07-29T14:32:37;5.10;;;4.80;;
8058;SDS011;4072;42.668;23.396;2022-07-29T14:35:06;6.45;;;5.63;;
8058;SDS011;4072;42.668;23.396;2022-07-29T14:37:35;5.53;;;5.13;;
8058;SDS011;4072;42.668;23.396;2022-07-29T14:40:06;6.10;;;5.13;;
8058;SDS011;4072;42.668;23.396;2022-07-29T14:42:34;6.32;;;5.63;;
8058;SDS011;4072;42.668;23.396;2022-07-29T14:45:02;6.53;;;5.70;;
8058;SDS011;4072;42.668;23.396;2022-07-29T14:47:31;5.88;;;4.97;;
8058;SDS011;4072;42.668;23.396;2022-07-29T14:49:59;6.35;;;5.43;;
8058;SDS011;4072;42.668;23.396;2022-07-29T14:52:27;5.90;;;5.40;;
8058;SDS011;4072;42.668;23.396;2022-07-29T14:54:57;5.25;;;4.88;;
8058;SDS011;4072;42.668;23.396;2022-07-29T14:57:25;5.90;;;5.40;;
8058;SDS011;4072;42.668;23.396;2022-07-29T14:59:53;6.03;;;5.55;;
8058;SDS011;4072;42.668;23.396;2022-07-29T15:02:22;6.38;;;5.80;;
8058;SDS011;4072;42.668;23.396;2022-07-29T15:05:11;5.13;;;4.72;;
8058;SDS011;4072;42.668;23.396;2022-07-29T15:07:39;6.07;;;5.57;;
8058;SDS011;4072;42.668;23.396;2022-07-29T15:10:08;6.50;;;5.90;;
8058;SDS011;4072;42.668;23.396;2022-07-29T15:12:40;5.15;;;4.70;;
8058;SDS011;4072;42.668;23.396;2022-07-29T15:15:08;6.40;;;5.50;;
8058;SDS011;4072;42.668;23.396;2022-07-29T15:17:36;6.13;;;5.53;;
8058;SDS011;4072;42.668;23.396;2022-07-29T15:20:05;5.45;;;5.05;;
8058;SDS011;4072;42.668;23.396;2022-07-29T15:22:33;5.43;;;4.93;;
8058;SDS011;4072;42.668;23.396;2022-07-29T15:25:01;5.32;;;4.80;;
8058;SDS011;4072;42.668;23.396;2022-07-29T15:27:30;5.97;;;4.88;;
8058;SDS011;4072;42.668;23.396;2022-07-29T15:29:59;5.22;;;4.80;;
8058;SDS011;4072;42.668;23.396;2022-07-29T15:32:26;5.38;;;4.80;;
8058;SDS011;4072;42.668;23.396;2022-07-29T15:34:55;5.10;;;4.70;;
8058;SDS011;4072;42.668;23.396;2022-07-29T15:37:23;9.93;;;5.38;;
8058;SDS011;4072;42.668;23.396;2022-07-29T15:39:51;4.95;;;4.55;;
8058;SDS011;4072;42.668;23.396;2022-07-29T15:42:25;6.18;;;4.90;;
8058;SDS011;4072;42.668;23.396;2022-07-29T15:44:54;4.95;;;4.55;;
8058;SDS011;4072;42.668;23.396;2022-07-29T15:47:23;10.45;;;5.55;;
8058;SDS011;4072;42.668;23.396;2022-07-29T15:49:50;5.13;;;4.63;;
8058;SDS011;4072;42.668;23.396;2022-07-29T15:52:19;4.80;;;4.40;;
8058;SDS011;4072;42.668;23.396;2022-07-29T15:54:51;5.28;;;4.82;;
8058;SDS011;4072;42.668;23.396;2022-07-29T15:57:19;4.97;;;4.60;;
8058;SDS011;4072;42.668;23.396;2022-07-29T15:59:47;4.63;;;4.22;;
8058;SDS011;4072;42.668;23.396;2022-07-29T16:02:17;5.10;;;4.60;;
8058;SDS011;4072;42.668;23.396;2022-07-29T16:04:46;4.50;;;4.10;;
8058;SDS011;4072;42.668;23.396;2022-07-29T16:07:22;4.30;;;3.90;;
8058;SDS011;4072;42.668;23.396;2022-07-29T16:09:57;4.63;;;4.30;;
8058;SDS011;4072;42.668;23.396;2022-07-29T16:12:25;4.78;;;4.32;;